• Join FlightAware (Why Join?)
  • Login
  • US Flag 
09:29PM EDT


 

Airport Tracker/Info


-or-


 

Live Flight TrackerFlight Track Log ✈ TAM3134 ✈ 26-Jul-2013 ✈ SBSP / CGH - SBVT / VIX

Flight Track Log - Related Links

Times and Time Zones

All times are in EDT time to prevent confusion due to time zone crossing. See the TAM3134 flight status page for this flight to view local times or setup timezone preferences in your user account.

Time Position Orientation Groundspeed Altitude Reporting Facility
EDT Latitude Longitude Course Direction KTS MPH feet Rate Location/Type
04:47PM -22.4894 -44.4176 62° Northeast  Level Estimated
04:48PM -22.4467 -44.3354 61° Northeast  Level Estimated
04:49PM -22.4039 -44.2533 61° Northeast  Level Estimated
04:50PM -22.3611 -44.1713 61° Northeast  Level Estimated
04:51PM -22.3183 -44.0892 61° Northeast  Level Estimated
04:52PM -22.2754 -44.0073 61° Northeast  Level Estimated
04:53PM -22.2325 -43.9254 60° Northeast  Level Estimated
04:54PM -22.1895 -43.8435 60° Northeast  Level Estimated
04:55PM -22.1465 -43.7617 60° Northeast  Level Estimated
04:56PM -22.1035 -43.6800 60° Northeast  Level Estimated
04:57PM -22.0604 -43.5982 60° Northeast  Level Estimated
04:58PM -22.0172 -43.5166 60° Northeast  Level Estimated
04:59PM -21.9741 -43.4350 60° Northeast  Level Estimated
05:00PM -21.9308 -43.3534 60° Northeast  Level Estimated
05:01PM -21.8876 -43.2719 60° Northeast  Level Estimated
05:02PM -21.8443 -43.1904 60° Northeast  Level Estimated
05:03PM -21.8010 -43.1090 60° Northeast  Level Estimated
05:04PM -21.7576 -43.0277 60° Northeast  Level Estimated
05:05PM -21.7142 -42.9464 60° Northeast  Level Estimated
05:06PM -21.6707 -42.8651 60° Northeast  Level Estimated
05:07PM -21.6273 -42.7839 60° Northeast  Level Estimated
05:08PM -21.5837 -42.7027 60° Northeast  Level Estimated
05:09PM -21.5402 -42.6216 60° Northeast  Level Estimated
05:10PM -21.4965 -42.5405 60° Northeast  Level Estimated
05:11PM -21.4529 -42.4595 60° Northeast  Level Estimated
05:12PM -21.4092 -42.3785 60° Northeast  Level Estimated
05:13PM -21.3655 -42.2976 60° Northeast  Level Estimated
05:14PM -21.3217 -42.2168 60° Northeast  Level Estimated
05:15PM -21.2779 -42.1359 60° Northeast  Level Estimated
05:16PM -21.2341 -42.0551 60° Northeast  Level Estimated
05:17PM -21.1902 -41.9744 60° Northeast  Level Estimated
05:18PM -21.1463 -41.8937 60° Northeast  Level Estimated
05:19PM -21.1024 -41.8131 60° Northeast  Level Estimated
05:20PM -21.0584 -41.7325 60° Northeast  Level Estimated
05:21PM -21.0143 -41.6520 60° Northeast  Level Estimated
05:22PM -20.9703 -41.5715 60° Northeast  Level Estimated
05:23PM -20.9261 -41.4910 60° Northeast  Level Estimated
05:24PM -20.8820 -41.4106 60° Northeast  Level Estimated
05:25PM -20.8378 -41.3303 60° Northeast  Level Estimated
05:26PM -20.7936 -41.2500 60° Northeast  Level Estimated
05:27PM -20.7493 -41.1697 59° Northeast  Level Estimated
05:28PM -20.7051 -41.0895 59° Northeast  Level Estimated
05:29PM -20.6607 -41.0094 59° Northeast  Level Estimated
05:30PM -20.6164 -40.9293 59° Northeast  Level Estimated
05:31PM -20.5720 -40.8492 59° Northeast  Level Estimated
05:32PM -20.5275 -40.7692 59° Northeast  Level Estimated
05:33PM -20.4830 -40.6892 59° Northeast  Level Estimated
05:34PM -20.4385 -40.6093 59° Northeast  Level Estimated
05:35PM -20.3940 -40.5294 59° Northeast  Level Estimated
05:36PM -20.3494 -40.4496 59° Northeast  Level Estimated
05:37PM -20.3048 -40.3698 59° Northeast  Level Estimated
05:38PM -20.2601 -40.2900 59° Northeast  Level Estimated
05:39PM -20.2581 -40.2864 59° Northeast  Level Estimated
05:40PM -20.2581 -40.2864 13° North  Level Estimated
05:41PM -20.2581 -40.2864 13° North  Level Estimated
05:42PM -20.2581 -40.2864 13° North  Level Estimated
05:43PM -20.2581 -40.2864 13° North  Level Estimated
05:44PM -20.2581 -40.2864 13° North  Level Estimated
05:45PM -20.2581 -40.2864 13° North  Level Estimated
05:46PM -20.2581 -40.2864 13° North  Level Estimated
05:47PM -20.2581 -40.2864 13° North  Level Estimated
05:48PM -20.2581 -40.2864 13° North  Level Estimated
05:49PM -20.2581 -40.2864 13° North  Level Estimated
05:50PM -20.2581 -40.2864 13° North  Level Estimated
05:51PM -20.2581 -40.2864 13° North  Level Estimated
05:52PM -20.2581 -40.2864 13° North  Level Estimated
05:53PM -20.2581 -40.2864 13° North  Level Estimated
05:54PM -20.2581 -40.2864 13° North  Level Estimated